createdAt,value
2023-01-19T00:00:01.162Z,945.9900
2023-01-19T00:00:12.247Z,945.9900
2023-01-19T00:00:23.381Z,945.9900
2023-01-19T00:00:34.601Z,945.9900
2023-01-19T00:00:45.711Z,945.9900
2023-01-19T00:00:56.919Z,945.9900
2023-01-19T00:01:08.114Z,945.9900
2023-01-19T00:01:19.153Z,945.9900
2023-01-19T00:01:30.193Z,945.9900
2023-01-19T00:01:41.391Z,945.9900
2023-01-19T00:01:52.440Z,945.9900
2023-01-19T00:02:03.495Z,945.9900
2023-01-19T00:02:14.682Z,945.9900
2023-01-19T00:02:25.972Z,945.9900
2023-01-19T00:02:37.090Z,945.9900
2023-01-19T00:02:48.347Z,946.0100
2023-01-19T00:02:59.423Z,946.0100
2023-01-19T00:03:10.433Z,945.9900
2023-01-19T00:03:21.755Z,945.9900
2023-01-19T00:03:33.103Z,946.0100
2023-01-19T00:03:44.265Z,945.9900
2023-01-19T00:03:55.478Z,946.0100
2023-01-19T00:04:06.660Z,945.9900
2023-01-19T00:04:17.804Z,946.0100
2023-01-19T00:04:28.864Z,945.9900
2023-01-19T00:04:39.944Z,945.9900
2023-01-19T00:04:51.150Z,945.9900
2023-01-19T00:05:02.363Z,945.9900
2023-01-19T00:05:13.554Z,945.9700
2023-01-19T00:05:24.750Z,945.9900
2023-01-19T00:05:35.943Z,945.9900
2023-01-19T00:05:47.256Z,945.9900
2023-01-19T00:05:58.396Z,946.0100
2023-01-19T00:06:09.551Z,946.0100
2023-01-19T00:06:20.770Z,945.9900
2023-01-19T00:06:32.050Z,945.9900
2023-01-19T00:06:43.161Z,945.9900
2023-01-19T00:06:54.341Z,946.0100
2023-01-19T00:07:05.565Z,946.0100
2023-01-19T00:07:16.750Z,946.0100
2023-01-19T00:07:27.973Z,946.0100
2023-01-19T00:07:39.149Z,946.0100
2023-01-19T00:07:50.388Z,946.0300
2023-01-19T00:08:01.993Z,945.9900
2023-01-19T00:08:13.414Z,946.0100
2023-01-19T00:08:24.592Z,946.0100
2023-01-19T00:08:35.784Z,946.0100
2023-01-19T00:08:46.828Z,946.0100
2023-01-19T00:08:57.863Z,946.0300
2023-01-19T00:09:08.973Z,946.0100
2023-01-19T00:09:20.007Z,946.0300
2023-01-19T00:09:31.164Z,946.0300
2023-01-19T00:09:42.350Z,946.0300
2023-01-19T00:09:53.557Z,946.0300
2023-01-19T00:10:04.772Z,946.0100
2023-01-19T00:10:15.944Z,946.0300
2023-01-19T00:10:27.037Z,946.0100
2023-01-19T00:10:38.133Z,946.0100
2023-01-19T00:10:49.255Z,945.9900
2023-01-19T00:11:00.429Z,946.0100
2023-01-19T00:11:11.624Z,945.9900
2023-01-19T00:11:22.855Z,945.9900
2023-01-19T00:11:34.034Z,946.0100
2023-01-19T00:11:45.229Z,946.0100
2023-01-19T00:11:56.426Z,946.0100
2023-01-19T00:12:07.488Z,946.0100
2023-01-19T00:12:18.533Z,946.0100
2023-01-19T00:12:29.711Z,946.0100
2023-01-19T00:12:40.935Z,945.9900
2023-01-19T00:12:52.127Z,945.9900
2023-01-19T00:13:03.650Z,945.9900
2023-01-19T00:13:14.878Z,946.0100
2023-01-19T00:13:26.025Z,946.0100
2023-01-19T00:13:37.229Z,946.0100
2023-01-19T00:13:48.451Z,945.9900
2023-01-19T00:13:59.614Z,946.0100
2023-01-19T00:14:10.825Z,945.9900
2023-01-19T00:14:22.043Z,946.0100
2023-01-19T00:14:33.223Z,946.0100
2023-01-19T00:14:44.423Z,946.0100
2023-01-19T00:14:55.626Z,946.0300
2023-01-19T00:15:06.823Z,946.0100
2023-01-19T00:15:18.058Z,946.0100
2023-01-19T00:15:29.087Z,946.0300
2023-01-19T00:15:40.149Z,946.0300
2023-01-19T00:15:51.381Z,946.0100
2023-01-19T00:16:02.468Z,946.0100
2023-01-19T00:16:13.554Z,946.0100
2023-01-19T00:16:24.661Z,946.0100
2023-01-19T00:16:35.761Z,946.0300
2023-01-19T00:16:47.007Z,946.0300
2023-01-19T00:16:58.180Z,946.0300
2023-01-19T00:17:09.383Z,946.0100
2023-01-19T00:17:20.593Z,946.0100
2023-01-19T00:17:31.791Z,945.9900
2023-01-19T00:17:42.992Z,946.0100
2023-01-19T00:17:54.210Z,945.9900
2023-01-19T00:18:05.273Z,946.0100
2023-01-19T00:18:16.343Z,945.9900
2023-01-19T00:18:27.474Z,946.0100
2023-01-19T00:18:38.520Z,946.0100
2023-01-19T00:18:49.592Z,946.0100
2023-01-19T00:19:00.760Z,946.0100
2023-01-19T00:19:11.829Z,946.0100
2023-01-19T00:19:23.064Z,945.9900
2023-01-19T00:19:34.123Z,946.0100
2023-01-19T00:19:45.190Z,946.0100
2023-01-19T00:19:56.436Z,946.0300
2023-01-19T00:20:07.504Z,946.0100
2023-01-19T00:20:18.574Z,946.0300
2023-01-19T00:20:29.710Z,946.0300
2023-01-19T00:20:40.912Z,946.0300
2023-01-19T00:20:51.977Z,946.0300
2023-01-19T00:21:03.060Z,946.0300
2023-01-19T00:21:14.184Z,946.0300
2023-01-19T00:21:25.389Z,946.0300
2023-01-19T00:21:36.590Z,946.0300
2023-01-19T00:21:47.792Z,946.0300
2023-01-19T00:21:58.830Z,946.0300
2023-01-19T00:22:09.864Z,946.0500
2023-01-19T00:22:21.077Z,946.0300
2023-01-19T00:22:32.289Z,946.0500
2023-01-19T00:22:43.465Z,946.0500
2023-01-19T00:22:54.587Z,946.0500
2023-01-19T00:23:05.648Z,946.0500
2023-01-19T00:23:16.746Z,946.0500
2023-01-19T00:23:27.972Z,946.0500
2023-01-19T00:23:39.155Z,946.0500
2023-01-19T00:23:50.190Z,946.0500
2023-01-19T00:24:01.250Z,946.0500
2023-01-19T00:24:12.423Z,946.0300
2023-01-19T00:24:23.482Z,946.0500
2023-01-19T00:24:34.567Z,946.0500
2023-01-19T00:24:45.719Z,946.0500
2023-01-19T00:24:56.903Z,946.0500
2023-01-19T00:25:08.125Z,946.0700
2023-01-19T00:25:19.323Z,946.0700
2023-01-19T00:25:30.511Z,946.0700
2023-01-19T00:25:41.703Z,946.0700
2023-01-19T00:25:52.796Z,946.0500
2023-01-19T00:26:03.864Z,946.0500
2023-01-19T00:26:14.923Z,946.0700
2023-01-19T00:26:25.994Z,946.0700
2023-01-19T00:26:37.078Z,946.0700
2023-01-19T00:26:48.264Z,946.0500
2023-01-19T00:26:59.472Z,946.0700
2023-01-19T00:27:10.663Z,946.0700
2023-01-19T00:27:21.869Z,946.0700
2023-01-19T00:27:33.063Z,946.0700
2023-01-19T00:27:44.273Z,946.0500
2023-01-19T00:27:57.057Z,946.0700
2023-01-19T00:28:08.291Z,946.0700
2023-01-19T00:28:19.468Z,946.0500
2023-01-19T00:28:30.704Z,946.0700
2023-01-19T00:28:41.879Z,946.0700
2023-01-19T00:28:53.154Z,946.0700
2023-01-19T00:29:04.189Z,946.0700
2023-01-19T00:29:15.264Z,946.0900
2023-01-19T00:29:26.349Z,946.0900
2023-01-19T00:29:37.550Z,946.0900
2023-01-19T00:29:48.754Z,946.0900
2023-01-19T00:29:59.943Z,946.0900
2023-01-19T00:30:11.148Z,946.0900
2023-01-19T00:30:22.260Z,946.0900
2023-01-19T00:30:33.334Z,946.0900
2023-01-19T00:30:44.436Z,946.0900
2023-01-19T00:30:55.624Z,946.0900
2023-01-19T00:31:06.750Z,946.0900
2023-01-19T00:31:17.847Z,946.0900
2023-01-19T00:31:28.926Z,946.0900
2023-01-19T00:31:40.149Z,946.0700
2023-01-19T00:31:51.330Z,946.0900
2023-01-19T00:32:02.513Z,946.0900
2023-01-19T00:32:13.703Z,946.0900
2023-01-19T00:32:24.743Z,946.0900
2023-01-19T00:32:35.794Z,946.0900
2023-01-19T00:32:46.983Z,946.0900
2023-01-19T00:32:58.899Z,946.1300
2023-01-19T00:33:10.717Z,946.0900
2023-01-19T00:33:21.874Z,946.0900
2023-01-19T00:33:33.064Z,946.0900
2023-01-19T00:33:44.275Z,946.0900
2023-01-19T00:33:55.349Z,946.0900
2023-01-19T00:34:06.395Z,946.0900
2023-01-19T00:34:17.552Z,946.0900
2023-01-19T00:34:28.755Z,946.0900
2023-01-19T00:34:39.824Z,946.0900
2023-01-19T00:34:50.889Z,946.0900
2023-01-19T00:35:02.036Z,946.0900
2023-01-19T00:35:13.233Z,946.0900
2023-01-19T00:35:24.419Z,946.0900
2023-01-19T00:35:35.630Z,946.0700
2023-01-19T00:35:46.825Z,946.0700
2023-01-19T00:35:58.023Z,946.0900
2023-01-19T00:36:09.239Z,946.0900
2023-01-19T00:36:20.298Z,946.0900
2023-01-19T00:36:31.354Z,946.0900
2023-01-19T00:36:42.505Z,946.0900
2023-01-19T00:36:53.709Z,946.0900
2023-01-19T00:37:04.760Z,946.0900
2023-01-19T00:37:15.823Z,946.0900
2023-01-19T00:37:27.001Z,946.0900
2023-01-19T00:37:38.184Z,946.0900
2023-01-19T00:37:49.391Z,946.0900
2023-01-19T00:38:00.639Z,946.0900
2023-01-19T00:38:11.724Z,946.0900
2023-01-19T00:38:22.759Z,946.1100
2023-01-19T00:38:33.870Z,946.0900
2023-01-19T00:38:45.074Z,946.0900
2023-01-19T00:38:56.272Z,946.0900
2023-01-19T00:39:07.474Z,946.0900
2023-01-19T00:39:18.545Z,946.0900
2023-01-19T00:39:29.593Z,946.0700
2023-01-19T00:39:40.750Z,946.0900
2023-01-19T00:39:51.953Z,946.0700
2023-01-19T00:40:03.149Z,946.0900
2023-01-19T00:40:14.344Z,946.0900
2023-01-19T00:40:25.563Z,946.0900
2023-01-19T00:40:36.751Z,946.1100
2023-01-19T00:40:48.589Z,946.0900
2023-01-19T00:40:59.790Z,946.1100
2023-01-19T00:41:10.824Z,946.1100
2023-01-19T00:41:21.879Z,946.0900
2023-01-19T00:41:32.974Z,946.1100
2023-01-19T00:41:44.067Z,946.0900
2023-01-19T00:41:55.143Z,946.1100
2023-01-19T00:42:06.225Z,946.1100
2023-01-19T00:42:17.300Z,946.1100
2023-01-19T00:42:28.424Z,946.1100
2023-01-19T00:42:39.479Z,946.1100
2023-01-19T00:42:50.549Z,946.1100
2023-01-19T00:43:02.248Z,946.1100
2023-01-19T00:43:13.609Z,946.1100
2023-01-19T00:43:24.674Z,946.1300
2023-01-19T00:43:35.777Z,946.1300
2023-01-19T00:43:46.825Z,946.1300
2023-01-19T00:43:58.114Z,946.1100
2023-01-19T00:44:09.154Z,946.1100
2023-01-19T00:44:20.228Z,946.1300
2023-01-19T00:44:31.304Z,946.1100
2023-01-19T00:44:42.374Z,946.1300
2023-01-19T00:44:53.462Z,946.1300
2023-01-19T00:45:04.586Z,946.1300
2023-01-19T00:45:15.657Z,946.1100
2023-01-19T00:45:26.767Z,946.1100
2023-01-19T00:45:37.951Z,946.1100
2023-01-19T00:45:49.122Z,946.1300
2023-01-19T00:46:00.335Z,946.1100
2023-01-19T00:46:11.481Z,946.1100
2023-01-19T00:46:22.504Z,946.1300
2023-01-19T00:46:33.573Z,946.1100
2023-01-19T00:46:44.744Z,946.0900
2023-01-19T00:46:55.943Z,946.1100
2023-01-19T00:47:07.155Z,946.0900
2023-01-19T00:47:18.353Z,946.0900
2023-01-19T00:47:29.411Z,946.0900
2023-01-19T00:47:40.477Z,946.0900
2023-01-19T00:47:51.624Z,946.0900
2023-01-19T00:48:02.884Z,946.0900
2023-01-19T00:48:13.972Z,946.0900
2023-01-19T00:48:25.036Z,946.0700
2023-01-19T00:48:36.113Z,946.0900
2023-01-19T00:48:47.318Z,946.0900
2023-01-19T00:48:58.390Z,946.0700
2023-01-19T00:49:09.449Z,946.0700
2023-01-19T00:49:20.592Z,946.0700
2023-01-19T00:49:31.784Z,946.0700
2023-01-19T00:49:42.983Z,946.0700
2023-01-19T00:49:54.183Z,946.0700
2023-01-19T00:50:05.384Z,946.0700
2023-01-19T00:50:16.433Z,946.0700
2023-01-19T00:50:27.500Z,946.0700
2023-01-19T00:50:38.679Z,946.0700
2023-01-19T00:50:49.751Z,946.0500
2023-01-19T00:51:00.813Z,946.0700
2023-01-19T00:51:11.863Z,946.0500
2023-01-19T00:51:22.926Z,946.0700
2023-01-19T00:51:33.973Z,946.0700
2023-01-19T00:51:45.037Z,946.0700
2023-01-19T00:51:56.104Z,946.0700
2023-01-19T00:52:07.314Z,946.0700
2023-01-19T00:52:18.512Z,946.0700
2023-01-19T00:52:29.709Z,946.0900
2023-01-19T00:52:40.907Z,946.0700
2023-01-19T00:52:51.962Z,946.0700
2023-01-19T00:53:03.368Z,946.0700
2023-01-19T00:53:14.551Z,946.0700
2023-01-19T00:53:25.705Z,946.0700
2023-01-19T00:53:36.772Z,946.0700
2023-01-19T00:53:47.823Z,946.0700
2023-01-19T00:53:58.998Z,946.0700
2023-01-19T00:54:10.197Z,946.0700
2023-01-19T00:54:21.382Z,946.0700
2023-01-19T00:54:32.584Z,946.0700
2023-01-19T00:54:43.790Z,946.0700
2023-01-19T00:54:55.028Z,946.0700
2023-01-19T00:55:06.180Z,946.0700
2023-01-19T00:55:17.384Z,946.0700
2023-01-19T00:55:28.592Z,946.0700
2023-01-19T00:55:39.781Z,946.0700
2023-01-19T00:55:50.989Z,946.0700
2023-01-19T00:56:02.206Z,946.0500
2023-01-19T00:56:13.391Z,946.0700
2023-01-19T00:56:24.431Z,946.0700
2023-01-19T00:56:35.487Z,946.0700
2023-01-19T00:56:46.664Z,946.0700
2023-01-19T00:56:57.881Z,946.0700
2023-01-19T00:57:09.064Z,946.0500
2023-01-19T00:57:20.269Z,946.0700
2023-01-19T00:57:31.470Z,946.0900
2023-01-19T00:57:42.669Z,946.0700
2023-01-19T00:57:53.865Z,946.0700
2023-01-19T00:58:05.110Z,946.0700
2023-01-19T00:58:16.263Z,946.0700
2023-01-19T00:58:27.314Z,946.0900
2023-01-19T00:58:38.366Z,946.0900
2023-01-19T00:58:49.555Z,946.1100
2023-01-19T00:59:00.770Z,946.1300
2023-01-19T00:59:11.953Z,946.1300
2023-01-19T00:59:23.148Z,946.1100
2023-01-19T00:59:34.352Z,946.1100
2023-01-19T00:59:45.399Z,946.0900
2023-01-19T00:59:56.479Z,946.0900
2023-01-19T01:00:07.642Z,946.0900
2023-01-19T01:00:18.839Z,946.1100
2023-01-19T01:00:29.912Z,946.1100
2023-01-19T01:00:41.059Z,946.1100
2023-01-19T01:00:52.221Z,946.1100
2023-01-19T01:01:03.739Z,946.1100
2023-01-19T01:01:15.341Z,946.1100
2023-01-19T01:01:45.122Z,946.1300
2023-01-19T01:01:45.351Z,946.1300
2023-01-19T01:01:57.647Z,946.1500
2023-01-19T01:02:09.181Z,946.1500
2023-01-19T01:02:20.715Z,946.1300
2023-01-19T01:02:32.207Z,946.1100
2023-01-19T01:02:43.716Z,946.1700
2023-01-19T01:02:55.099Z,946.1700
2023-01-19T01:03:06.293Z,946.1700
2023-01-19T01:03:17.441Z,946.1500
2023-01-19T01:03:28.664Z,946.1500
2023-01-19T01:03:39.813Z,946.1500
2023-01-19T01:03:51.004Z,946.1500
2023-01-19T01:04:02.185Z,946.1500
2023-01-19T01:04:13.409Z,946.1500
2023-01-19T01:04:24.594Z,946.1500
2023-01-19T01:04:35.664Z,946.1700
2023-01-19T01:04:46.744Z,946.1700
2023-01-19T01:04:57.884Z,946.1700
2023-01-19T01:05:09.087Z,946.1500
2023-01-19T01:05:20.275Z,946.1700
2023-01-19T01:05:31.465Z,946.1700
2023-01-19T01:05:42.673Z,946.1700
2023-01-19T01:05:53.867Z,946.1500
2023-01-19T01:06:05.076Z,946.1700
2023-01-19T01:06:16.269Z,946.1700
2023-01-19T01:06:27.482Z,946.1700
2023-01-19T01:06:38.558Z,946.1700
2023-01-19T01:06:49.606Z,946.1700
2023-01-19T01:07:00.757Z,946.1700
2023-01-19T01:07:11.945Z,946.1700
2023-01-19T01:07:23.144Z,946.1700
2023-01-19T01:07:34.353Z,946.1700
2023-01-19T01:07:45.616Z,946.1700
2023-01-19T01:07:56.754Z,946.1700
2023-01-19T01:08:07.973Z,946.1700
2023-01-19T01:08:19.149Z,946.1700
2023-01-19T01:08:30.354Z,946.1500
2023-01-19T01:08:41.395Z,946.1500
2023-01-19T01:08:52.458Z,946.1500
2023-01-19T01:09:03.629Z,946.1500
2023-01-19T01:09:14.825Z,946.1500
2023-01-19T01:09:26.023Z,946.1500
2023-01-19T01:09:37.130Z,946.1500
2023-01-19T01:09:48.160Z,946.1500
2023-01-19T01:09:59.194Z,946.1500
2023-01-19T01:10:10.254Z,946.1300
2023-01-19T01:10:21.383Z,946.1500
2023-01-19T01:10:32.448Z,946.1300
2023-01-19T01:10:43.504Z,946.1500
2023-01-19T01:10:54.550Z,946.1500
2023-01-19T01:11:05.584Z,946.1500
2023-01-19T01:11:16.624Z,946.1700
2023-01-19T01:11:27.695Z,946.1700
2023-01-19T01:11:38.831Z,946.1700
2023-01-19T01:11:50.030Z,946.1700
2023-01-19T01:12:02.230Z,946.1500
2023-01-19T01:12:13.384Z,946.1500
2023-01-19T01:12:24.592Z,946.1300
2023-01-19T01:12:35.788Z,946.1700
2023-01-19T01:13:20.304Z,946.1700
2023-01-19T01:13:20.833Z,946.1700
2023-01-19T01:13:23.631Z,946.1500
2023-01-19T01:13:36.629Z,946.1500
2023-01-19T01:13:47.819Z,946.1300
2023-01-19T01:13:59.084Z,946.1700
2023-01-19T01:14:10.450Z,946.1500
2023-01-19T01:14:21.509Z,946.1500
2023-01-19T01:14:32.609Z,946.1700
2023-01-19T01:14:43.817Z,946.1700
2023-01-19T01:14:55.685Z,946.1700
2023-01-19T01:15:06.763Z,946.1700
2023-01-19T01:15:17.833Z,946.1900
2023-01-19T01:15:28.931Z,946.1900
2023-01-19T01:15:40.110Z,946.1700
2023-01-19T01:15:51.189Z,946.1700
2023-01-19T01:16:02.290Z,946.1700
2023-01-19T01:16:13.424Z,946.1700
2023-01-19T01:16:24.620Z,946.1900
2023-01-19T01:16:35.904Z,946.1700
2023-01-19T01:16:47.042Z,946.1700
2023-01-19T01:16:58.182Z,946.1900
2023-01-19T01:17:09.417Z,946.1700
2023-01-19T01:17:20.474Z,946.1700
2023-01-19T01:17:31.571Z,946.1700
2023-01-19T01:17:42.714Z,946.1700
2023-01-19T01:17:53.809Z,946.1700
2023-01-19T01:18:04.892Z,946.1900
2023-01-19T01:18:15.984Z,946.1700
2023-01-19T01:18:27.101Z,946.1700
2023-01-19T01:18:38.191Z,946.1700
2023-01-19T01:18:49.223Z,946.1700
2023-01-19T01:19:00.319Z,946.1700
2023-01-19T01:19:11.405Z,946.1700
2023-01-19T01:19:22.439Z,946.1700
2023-01-19T01:19:33.490Z,946.1700
2023-01-19T01:19:44.620Z,946.2100
2023-01-19T01:19:55.794Z,946.2100
2023-01-19T01:20:06.836Z,946.2100
2023-01-19T01:20:17.912Z,946.1700
2023-01-19T01:20:28.983Z,946.2100
2023-01-19T01:20:40.015Z,946.1900
2023-01-19T01:20:51.057Z,946.1900
2023-01-19T01:21:02.126Z,946.1900
2023-01-19T01:21:13.226Z,946.1900
2023-01-19T01:21:24.413Z,946.1700
2023-01-19T01:21:35.623Z,946.1900
2023-01-19T01:21:46.666Z,946.1900
2023-01-19T01:21:57.715Z,946.1900
2023-01-19T01:22:08.906Z,946.1900
2023-01-19T01:22:20.116Z,946.1900
2023-01-19T01:22:31.307Z,946.1900
2023-01-19T01:22:42.578Z,946.1900
2023-01-19T01:22:53.645Z,946.2100
2023-01-19T01:23:04.878Z,946.1900
2023-01-19T01:23:16.160Z,946.2100
2023-01-19T01:23:27.334Z,946.2100
2023-01-19T01:23:38.507Z,946.2100
2023-01-19T01:23:49.552Z,946.2100
2023-01-19T01:24:00.585Z,946.1900
2023-01-19T01:24:11.790Z,946.2100
2023-01-19T01:24:22.847Z,946.2100
2023-01-19T01:24:33.916Z,946.2100
2023-01-19T01:24:45.063Z,946.2100
2023-01-19T01:24:56.270Z,946.1900
2023-01-19T01:25:07.463Z,946.2100
2023-01-19T01:25:18.513Z,946.2100
2023-01-19T01:25:29.556Z,946.2100
2023-01-19T01:25:40.752Z,946.2100
2023-01-19T01:25:51.945Z,946.2100
2023-01-19T01:26:03.144Z,946.2100
2023-01-19T01:26:14.343Z,946.2300
2023-01-19T01:26:27.126Z,946.2300
2023-01-19T01:26:39.016Z,946.1900
2023-01-19T01:26:50.077Z,946.1900
2023-01-19T01:27:01.123Z,946.1900
2023-01-19T01:27:12.269Z,946.2500
2023-01-19T01:27:23.463Z,946.2300
2023-01-19T01:27:34.683Z,946.2500
2023-01-19T01:27:45.748Z,946.2500
2023-01-19T01:27:56.820Z,946.2300
2023-01-19T01:28:07.950Z,946.2300
2023-01-19T01:28:18.990Z,946.2300
2023-01-19T01:28:30.069Z,946.2300
2023-01-19T01:28:41.231Z,946.2300
2023-01-19T01:28:52.282Z,946.2300
2023-01-19T01:29:03.358Z,946.2300
2023-01-19T01:29:14.559Z,946.2500
2023-01-19T01:29:25.711Z,946.2500
2023-01-19T01:29:36.893Z,946.2500
2023-01-19T01:29:48.115Z,946.2500
2023-01-19T01:29:59.152Z,946.2500
2023-01-19T01:30:10.243Z,946.2500
2023-01-19T01:30:21.425Z,946.2500
2023-01-19T01:30:32.586Z,946.2500
2023-01-19T01:30:43.779Z,946.2500
2023-01-19T01:30:55.008Z,946.2500
2023-01-19T01:31:06.103Z,946.2500
2023-01-19T01:31:17.244Z,946.2500
2023-01-19T01:31:28.360Z,946.2300
2023-01-19T01:31:39.511Z,946.2500
2023-01-19T01:31:50.692Z,946.2500
2023-01-19T01:32:01.879Z,946.2100
2023-01-19T01:32:13.063Z,946.1900
2023-01-19T01:32:24.286Z,946.2500
2023-01-19T01:32:35.475Z,946.1900
2023-01-19T01:32:46.672Z,946.1900
2023-01-19T01:32:58.052Z,946.2100
2023-01-19T01:33:09.450Z,946.1900
2023-01-19T01:33:40.847Z,946.1900
2023-01-19T01:33:40.884Z,946.2100
2023-01-19T01:33:52.955Z,946.2300
2023-01-19T01:34:04.105Z,946.2100
2023-01-19T01:34:15.313Z,946.2100
2023-01-19T01:34:26.514Z,946.2100
2023-01-19T01:34:37.704Z,946.2300
2023-01-19T01:34:48.916Z,946.2300
2023-01-19T01:35:00.140Z,946.2300
2023-01-19T01:35:11.307Z,946.2300
2023-01-19T01:35:22.379Z,946.2100
2023-01-19T01:35:33.439Z,946.2100
2023-01-19T01:35:44.636Z,946.2100
2023-01-19T01:35:55.790Z,946.2300
2023-01-19T01:36:06.994Z,946.2300
2023-01-19T01:36:18.187Z,946.2300
2023-01-19T01:36:29.272Z,946.2100
2023-01-19T01:36:40.329Z,946.2100
2023-01-19T01:36:51.462Z,946.2100
2023-01-19T01:37:02.546Z,946.2100
2023-01-19T01:37:13.611Z,946.2100
2023-01-19T01:37:24.746Z,946.2100
2023-01-19T01:37:35.802Z,946.2700
2023-01-19T01:37:46.894Z,946.2700
2023-01-19T01:37:58.030Z,946.2700
2023-01-19T01:38:09.237Z,946.2300
2023-01-19T01:38:20.429Z,946.2300
2023-01-19T01:38:31.637Z,946.2700
2023-01-19T01:38:42.869Z,946.2700
2023-01-19T01:38:54.035Z,946.2700
2023-01-19T01:39:05.235Z,946.2300
2023-01-19T01:39:16.424Z,946.2300
2023-01-19T01:39:27.633Z,946.2300
2023-01-19T01:39:38.701Z,946.2300
2023-01-19T01:39:49.753Z,946.2300
2023-01-19T01:40:00.905Z,946.2700
2023-01-19T01:40:11.962Z,946.2700
2023-01-19T01:40:23.031Z,946.2700
2023-01-19T01:40:34.081Z,946.3500
2023-01-19T01:40:45.116Z,946.2700
2023-01-19T01:40:56.169Z,946.2700
2023-01-19T01:41:07.225Z,946.2700
2023-01-19T01:41:19.095Z,946.2700
2023-01-19T01:41:33.134Z,946.2500
2023-01-19T01:41:44.319Z,946.2500
2023-01-19T01:41:56.010Z,946.2500
2023-01-19T01:42:08.959Z,946.2500
2023-01-19T01:42:20.028Z,946.2500
2023-01-19T01:42:31.103Z,946.2500
2023-01-19T01:42:42.186Z,946.2500
2023-01-19T01:42:53.239Z,946.2500
2023-01-19T01:43:04.303Z,946.2500
2023-01-19T01:43:15.473Z,946.2500
2023-01-19T01:43:26.520Z,946.2500
2023-01-19T01:43:37.579Z,946.2500
2023-01-19T01:43:48.774Z,946.2500
2023-01-19T01:43:59.824Z,946.2500
2023-01-19T01:44:10.885Z,946.2500
2023-01-19T01:44:22.392Z,946.2500
2023-01-19T01:44:33.543Z,946.2500
2023-01-19T01:44:44.593Z,946.2700
2023-01-19T01:44:55.637Z,946.2700
2023-01-19T01:45:06.830Z,946.2500
2023-01-19T01:45:18.024Z,946.2700
2023-01-19T01:45:29.290Z,946.2500
2023-01-19T01:45:40.538Z,946.2700
2023-01-19T01:45:51.646Z,946.2700
2023-01-19T01:46:02.709Z,946.2700
2023-01-19T01:46:13.827Z,946.2700
2023-01-19T01:46:24.903Z,946.2700
2023-01-19T01:46:36.104Z,946.2700
2023-01-19T01:46:47.303Z,946.2700
2023-01-19T01:46:58.519Z,946.2700
2023-01-19T01:47:09.578Z,946.2700
2023-01-19T01:47:20.649Z,946.2700
2023-01-19T01:47:31.785Z,946.2700
2023-01-19T01:47:42.833Z,946.2700
2023-01-19T01:47:53.879Z,946.3700
2023-01-19T01:48:05.066Z,946.3700
2023-01-19T01:48:16.123Z,946.2500
2023-01-19T01:48:27.164Z,946.2700
2023-01-19T01:48:38.344Z,946.3700
2023-01-19T01:48:49.404Z,946.2500
2023-01-19T01:49:00.472Z,946.2500
2023-01-19T01:49:11.622Z,946.2500
2023-01-19T01:49:22.677Z,946.2700
2023-01-19T01:49:33.714Z,946.2700
2023-01-19T01:49:44.905Z,946.2700
2023-01-19T01:49:56.115Z,946.3500
2023-01-19T01:50:07.194Z,946.2700
2023-01-19T01:50:18.259Z,946.2700
2023-01-19T01:50:29.310Z,946.3500
2023-01-19T01:50:40.365Z,946.3500
2023-01-19T01:50:51.465Z,946.3500
2023-01-19T01:51:02.675Z,946.3700
2023-01-19T01:51:13.853Z,946.3500
2023-01-19T01:51:25.104Z,946.3700
2023-01-19T01:51:36.145Z,946.3700
2023-01-19T01:51:47.218Z,946.3700
2023-01-19T01:51:58.348Z,946.3700
2023-01-19T01:52:09.488Z,946.3700
2023-01-19T01:52:20.556Z,946.3900
2023-01-19T01:52:31.630Z,946.3900
2023-01-19T01:52:42.665Z,946.4100
2023-01-19T01:53:07.364Z,946.3900
2023-01-19T01:53:16.764Z,946.4100
2023-01-19T01:53:27.952Z,946.4100
2023-01-19T01:53:39.024Z,946.4100
2023-01-19T01:53:50.140Z,946.4100
2023-01-19T01:54:01.230Z,946.4100
2023-01-19T01:54:12.432Z,946.4100
2023-01-19T01:54:23.645Z,946.4100
2023-01-19T01:54:34.851Z,946.4300
2023-01-19T01:54:46.052Z,946.4100
2023-01-19T01:54:57.239Z,946.4100
2023-01-19T01:55:08.320Z,946.4100
2023-01-19T01:55:19.440Z,946.4100
2023-01-19T01:55:30.513Z,946.3900
2023-01-19T01:55:41.743Z,946.4100
2023-01-19T01:55:52.920Z,946.3900
2023-01-19T01:56:04.099Z,946.3900
2023-01-19T01:56:15.303Z,946.3900
2023-01-19T01:56:26.519Z,946.4100
2023-01-19T01:56:37.731Z,946.4100
2023-01-19T01:56:48.831Z,946.4100
2023-01-19T01:56:59.925Z,946.3900
2023-01-19T01:57:11.000Z,946.4100
2023-01-19T01:57:22.066Z,946.4100
2023-01-19T01:57:33.124Z,946.4100
2023-01-19T01:57:44.269Z,946.4100
2023-01-19T01:57:55.352Z,946.4100
2023-01-19T01:58:06.454Z,946.4100
2023-01-19T01:58:17.549Z,946.4100
2023-01-19T01:58:28.590Z,946.4100
2023-01-19T01:58:39.633Z,946.4300
2023-01-19T01:58:50.949Z,946.4300
2023-01-19T01:59:02.033Z,946.4300
2023-01-19T01:59:13.223Z,946.4300
2023-01-19T01:59:24.422Z,946.4300
2023-01-19T01:59:35.648Z,946.4300
2023-01-19T01:59:46.834Z,946.4300
2023-01-19T01:59:58.015Z,946.4300
2023-01-19T02:00:09.056Z,946.4300
2023-01-19T02:00:20.112Z,946.4500
2023-01-19T02:00:31.318Z,946.4500
2023-01-19T02:00:42.905Z,946.4500
2023-01-19T02:00:57.091Z,946.4300
2023-01-19T02:01:08.322Z,946.4300
2023-01-19T02:01:19.775Z,946.4500
2023-01-19T02:01:31.302Z,946.4300
2023-01-19T02:01:42.543Z,946.4300
2023-01-19T02:01:53.675Z,946.4500
2023-01-19T02:02:04.860Z,946.4500
2023-01-19T02:02:16.024Z,946.4500
2023-01-19T02:02:27.273Z,946.4500
2023-01-19T02:02:38.343Z,946.4500
2023-01-19T02:02:50.565Z,946.4500
2023-01-19T02:03:02.234Z,946.4500
2023-01-19T02:03:13.632Z,946.4500
2023-01-19T02:03:24.770Z,946.4700
2023-01-19T02:03:35.988Z,946.4700
2023-01-19T02:03:47.146Z,946.4700
2023-01-19T02:03:58.387Z,946.4700
2023-01-19T02:04:09.546Z,946.4500
2023-01-19T02:04:20.753Z,946.4700
2023-01-19T02:04:31.942Z,946.4700
2023-01-19T02:04:43.155Z,946.4700
2023-01-19T02:04:54.185Z,946.4500
2023-01-19T02:05:05.223Z,946.4700
2023-01-19T02:05:16.429Z,946.4700
2023-01-19T02:05:27.514Z,946.4700
2023-01-19T02:05:38.560Z,946.4700
2023-01-19T02:05:49.709Z,946.4700
2023-01-19T02:06:00.814Z,946.4700
2023-01-19T02:06:11.840Z,946.4900
2023-01-19T02:06:22.989Z,946.4900
2023-01-19T02:06:34.032Z,946.4900
2023-01-19T02:06:45.107Z,946.4900
2023-01-19T02:06:56.263Z,946.4900
2023-01-19T02:07:07.334Z,946.4900
2023-01-19T02:07:18.424Z,946.4900
2023-01-19T02:07:29.543Z,946.5000
2023-01-19T02:07:40.594Z,946.4900
2023-01-19T02:07:51.664Z,946.5000
2023-01-19T02:08:02.834Z,946.5000
2023-01-19T02:08:13.890Z,946.4900
2023-01-19T02:08:24.944Z,946.5000
2023-01-19T02:08:36.107Z,946.5000
2023-01-19T02:08:47.147Z,946.4900
2023-01-19T02:08:58.198Z,946.4900
2023-01-19T02:09:09.412Z,946.4900
2023-01-19T02:09:20.608Z,946.4900
2023-01-19T02:09:31.696Z,946.4900
2023-01-19T02:09:42.983Z,946.4900
2023-01-19T02:09:54.184Z,946.4900
2023-01-19T02:10:05.383Z,946.4900
2023-01-19T02:10:16.604Z,946.4900
2023-01-19T02:10:27.788Z,946.4900
2023-01-19T02:10:38.993Z,946.4900
2023-01-19T02:10:50.046Z,946.4900
2023-01-19T02:11:01.076Z,946.4900
2023-01-19T02:11:12.276Z,946.4900
2023-01-19T02:11:23.465Z,946.4700
2023-01-19T02:11:34.665Z,946.4700
2023-01-19T02:11:45.872Z,946.4900
2023-01-19T02:11:56.933Z,946.4900